Fisktrans — LIAB — position and weather

sailwx.info

Track history (hours):
 
Tides and Currents Weather Stations Pressure Air Temp Water Temp Dewpoint Dewpoint Depression Visibility Wind Speed Wind Dir Waves Ship Positions

Fisktrans

Last reported at 2016-Sep-30 10:34 UTC. Time now 2016-Sep-30 11:44 UTC.
Position N 67°17' E 014°23'.

Length 74 m; draft 6.5 m.

Type: Cargo ship. MMSI: 258034000.

Date/timePositionNaut miles runAvg speedWind from/ knotsBaromVisibWave heightAir tempDewpointWater temp
2016-Sep-30 10:34N 67°17' E 014°23'0 0.0
2016-Sep-30 08:34N 67°17' E 014°23'0 0.0
2016-Sep-30 06:33N 67°17' E 014°23'0 0.0
2016-Sep-30 03:34N 67°17' E 014°23'0 0.0
2016-Sep-30 02:34N 67°17' E 014°23'0 0.0
2016-Sep-29 23:34N 67°17' E 014°23'0 0.0
2016-Sep-29 21:34N 67°17' E 014°23'0 0.0
2016-Sep-29 20:34N 67°17' E 014°23'0 0.0
2016-Sep-29 19:34N 67°17' E 014°23'0 0.0
2016-Sep-29 16:34N 67°17' E 014°23'0 0.0
2016-Sep-29 15:34N 67°17' E 014°23'0 0.0
2016-Sep-29 14:33N 67°17' E 014°23'0 0.0
2016-Sep-29 13:34N 67°17' E 014°23'0 0.0
2016-Sep-29 08:33N 67°17' E 014°23'0 0.0
2016-Sep-29 07:34N 67°17' E 014°23'0 0.0
2016-Sep-29 00:33N 67°17' E 014°23'0 0.0
2016-Sep-28 21:34N 67°17' E 014°23'0 0.0
2016-Sep-28 19:34N 67°17' E 014°23'0 0.0
2016-Sep-28 16:33N 67°17' E 014°23'0 0.0
2016-Sep-28 15:33N 67°17' E 014°23'0 0.0
2016-Sep-28 12:33N 67°17' E 014°23'0 0.0
2016-Sep-28 08:34N 67°17' E 014°23'21 4.2
2016-Sep-28 03:33N 67°02' E 013°46'9 8.6
2016-Sep-28 02:28N 66°55' E 013°29'123 9.4
2016-Sep-27 13:28N 65°01' E 011°41'90 6.9
2016-Sep-27 00:26N 63°46' E 009°46'0 0.0
2016-Sep-26 20:26N 63°46' E 009°46'0 0.0
2016-Sep-26 19:34N 63°46' E 009°46'0 0.0
2016-Sep-26 15:05N 63°46' E 009°46'0 0.0
2016-Sep-26 11:31N 63°46' E 009°46'0 0.0
2016-Sep-26 08:34N 63°46' E 009°45'0 0.0
2016-Sep-26 02:34N 63°46' E 009°45'0 0.0
2016-Sep-26 01:34N 63°46' E 009°45'0 0.0
2016-Sep-26 00:34N 63°46' E 009°45'18 5.9
2016-Sep-25 21:33N 64°04' E 009°47'5510.8
2016-Sep-25 16:28N 64°47' E 011°04'9 9.5
2016-Sep-25 15:34N 64°53' E 011°19'1010.0
2016-Sep-25 14:34N 64°60' E 011°36'93 9.3
2016-Sep-25 04:33N 66°26' E 012°59'35 8.8
2016-Sep-25 00:33N 66°58' E 013°34'19 9.5
2016-Sep-24 22:33N 67°12' E 014°07'8 7.7
2016-Sep-24 21:34N 67°17' E 014°23'0 0.0
2016-Sep-24 19:34N 67°17' E 014°23'0 0.0
2016-Sep-24 18:34N 67°17' E 014°23'0 0.0
2016-Sep-24 17:34N 67°17' E 014°23'3 3.4
2016-Sep-24 16:34N 67°20' E 014°23'2610.6
2016-Sep-24 14:04N 67°47' E 014°23'  
2016-Sep-20 17:34N 67°17' E 014°23'0 0.0
2016-Sep-20 14:33N 67°17' E 014°23'0 0.0
2016-Sep-20 13:34N 67°17' E 014°23'0 0.0
2016-Sep-20 10:34N 67°17' E 014°23'  
Track history (hours):
 
Tides and Currents Weather Stations Pressure Air Temp Water Temp Dewpoint Dewpoint Depression Visibility Wind Speed Wind Dir Waves Ship Positions

Fisktrans

Last reported at 2016-Sep-30 10:34 UTC. Time now 2016-Sep-30 11:44 UTC.
Position N 67°17' E 014°23'.

Length 74 m; draft 6.5 m.

Type: Cargo ship. MMSI: 258034000.

Date/timePositionNaut miles runAvg speedWind from/ knotsBaromVisibWave heightAir tempDewpointWater temp
2016-Sep-30 10:34N 67°17' E 014°23'0 0.0
2016-Sep-30 08:34N 67°17' E 014°23'0 0.0
2016-Sep-30 06:33N 67°17' E 014°23'0 0.0
2016-Sep-30 03:34N 67°17' E 014°23'0 0.0
2016-Sep-30 02:34N 67°17' E 014°23'0 0.0
2016-Sep-29 23:34N 67°17' E 014°23'0 0.0
2016-Sep-29 21:34N 67°17' E 014°23'0 0.0
2016-Sep-29 20:34N 67°17' E 014°23'0 0.0
2016-Sep-29 19:34N 67°17' E 014°23'0 0.0
2016-Sep-29 16:34N 67°17' E 014°23'0 0.0
2016-Sep-29 15:34N 67°17' E 014°23'0 0.0
2016-Sep-29 14:33N 67°17' E 014°23'0 0.0
2016-Sep-29 13:34N 67°17' E 014°23'0 0.0
2016-Sep-29 08:33N 67°17' E 014°23'0 0.0
2016-Sep-29 07:34N 67°17' E 014°23'0 0.0
2016-Sep-29 00:33N 67°17' E 014°23'0 0.0
2016-Sep-28 21:34N 67°17' E 014°23'0 0.0
2016-Sep-28 19:34N 67°17' E 014°23'0 0.0
2016-Sep-28 16:33N 67°17' E 014°23'0 0.0
2016-Sep-28 15:33N 67°17' E 014°23'0 0.0
2016-Sep-28 12:33N 67°17' E 014°23'0 0.0
2016-Sep-28 08:34N 67°17' E 014°23'21 4.2
2016-Sep-28 03:33N 67°02' E 013°46'9 8.6
2016-Sep-28 02:28N 66°55' E 013°29'123 9.4
2016-Sep-27 13:28N 65°01' E 011°41'90 6.9
2016-Sep-27 00:26N 63°46' E 009°46'0 0.0
2016-Sep-26 20:26N 63°46' E 009°46'0 0.0
2016-Sep-26 19:34N 63°46' E 009°46'0 0.0
2016-Sep-26 15:05N 63°46' E 009°46'0 0.0
2016-Sep-26 11:31N 63°46' E 009°46'0 0.0
2016-Sep-26 08:34N 63°46' E 009°45'0 0.0
2016-Sep-26 02:34N 63°46' E 009°45'0 0.0
2016-Sep-26 01:34N 63°46' E 009°45'0 0.0
2016-Sep-26 00:34N 63°46' E 009°45'18 5.9
2016-Sep-25 21:33N 64°04' E 009°47'5510.8
2016-Sep-25 16:28N 64°47' E 011°04'9 9.5
2016-Sep-25 15:34N 64°53' E 011°19'1010.0
2016-Sep-25 14:34N 64°60' E 011°36'93 9.3
2016-Sep-25 04:33N 66°26' E 012°59'35 8.8
2016-Sep-25 00:33N 66°58' E 013°34'19 9.5
2016-Sep-24 22:33N 67°12' E 014°07'8 7.7
2016-Sep-24 21:34N 67°17' E 014°23'0 0.0
2016-Sep-24 19:34N 67°17' E 014°23'0 0.0
2016-Sep-24 18:34N 67°17' E 014°23'0 0.0
2016-Sep-24 17:34N 67°17' E 014°23'3 3.4
2016-Sep-24 16:34N 67°20' E 014°23'2610.6
2016-Sep-24 14:04N 67°47' E 014°23'  
2016-Sep-20 17:34N 67°17' E 014°23'0 0.0
2016-Sep-20 14:33N 67°17' E 014°23'0 0.0
2016-Sep-20 13:34N 67°17' E 014°23'0 0.0
2016-Sep-20 10:34N 67°17' E 014°23'  

Dump ship's entire track history